Strona główna
METAR-TAF:

METAR-TAF

Lotnisko :

Port lotniczy Salerno-Costa d'Amalfi

Salerno, Włochy

Szerokość geograficzna: 40-37N, Długość geograficzna: 014-55E, wysokość: 40 m

Aktualna obserwacja pogody

Raport powstał 7 godziny i 41 minut temu, godzina 14:50 UTC
Wiatr 13 kt od wschód
Temperatura 19°C
Wilgotność 19%
Ciśnienie 1013 hPa
Widzialność 10 km lub więcej
Brak chmur poniżej 1500 m i brak chmur cumulonimbus

METAR: LIRI 041450Z 08013KT CAVOK 19/M05 Q1013

czas: 00:31 (22:31 UTC)


TAF: brakujący

Obserwacja i prognoza pogody dla ponad 4000 lotnisk (raport METAR i TAF).

Dostępne stacje oznaczono żółtymi i czerwonymi punktami na mapie.

Najedź kursorem aby zobaczyć nazwę stacji.

Kliknij aby zobaczyć obserwacje i prognozy pogody.

Aby zmienić mapę: kliknij na zielony przycisk z czarnym krzyżykiem, aby powiększyć; na zielony przycisk z myślnikiem, aby pomniejszyć; na zielone strzałki, aby przejść do map sąsiednich.


METAR-TAF: